Time;durP1;ratioP1;P1;durP2;ratioP2;P2;SDS_P1;SDS_P2;PMS_P1;PMS_P2;Temp;Humidity;BMP_temperature;BMP_pressure;BME280_temperature;BME280_humidity;BME280_pressure;Samples;Min_cycle;Max_cycle;Signal;HPM_P1;HPM_P2
2023/02/18 00:01:17;;;;;;;6.25;4.60;;;;;;;11.92;47.57;101901.75;4958577;28;20050;-80
2023/02/18 00:03:45;;;;;;;6.25;4.72;;;;;;;11.89;47.87;101893.75;4977167;28;20072;-80
2023/02/18 00:06:14;;;;;;;7.00;5.05;;;;;;;11.90;47.99;101895.50;4976979;28;20062;-81
2023/02/18 00:08:43;;;;;;;7.75;5.28;;;;;;;11.91;47.66;101890.88;4953014;28;20043;-80
2023/02/18 00:11:12;;;;;;;6.50;4.38;;;;;;;11.89;47.61;101896.47;4968597;28;20061;-80
2023/02/18 00:13:42;;;;;;;5.57;4.10;;;;;;;11.92;48.18;101895.38;4949672;28;20079;-80
2023/02/18 00:16:11;;;;;;;5.55;4.30;;;;;;;11.90;47.72;101890.00;4958315;28;20097;-80
2023/02/18 00:18:39;;;;;;;6.78;4.72;;;;;;;11.90;47.87;101889.13;4958150;28;20047;-80
2023/02/18 00:21:08;;;;;;;6.18;4.30;;;;;;;11.91;48.04;101883.53;4952669;29;20043;-80
2023/02/18 00:23:36;;;;;;;5.63;4.45;;;;;;;11.89;47.96;101880.03;4961821;28;20130;-80
2023/02/18 00:26:07;;;;;;;6.15;4.85;;;;;;;11.91;48.18;101877.16;4959763;28;20047;-80
2023/02/18 00:28:36;;;;;;;7.00;4.78;;;;;;;11.89;47.80;101879.16;4947242;29;20082;-80
2023/02/18 00:31:10;;;;;;;6.53;4.85;;;;;;;11.91;48.37;101869.81;4950937;29;20063;-81
2023/02/18 00:33:39;;;;;;;7.47;4.75;;;;;;;11.88;48.25;101864.59;4957288;28;20047;-81
2023/02/18 00:36:08;;;;;;;7.32;4.90;;;;;;;11.89;48.09;101852.59;4958881;28;20417;-80
2023/02/18 00:38:37;;;;;;;6.38;4.95;;;;;;;11.86;48.07;101857.47;4956026;28;20043;-82
2023/02/18 00:41:05;;;;;;;7.47;5.07;;;;;;;11.88;47.72;101841.78;4959804;28;20042;-81
2023/02/18 00:43:34;;;;;;;7.10;5.20;;;;;;;11.86;48.08;101854.72;4975893;28;20070;-82
2023/02/18 00:46:02;;;;;;;7.05;5.55;;;;;;;11.86;48.22;101850.09;4958017;28;20137;-81
2023/02/18 00:48:32;;;;;;;7.80;5.93;;;;;;;11.86;48.25;101854.72;4954546;28;20134;-81
2023/02/18 00:51:01;;;;;;;6.90;5.07;;;;;;;11.85;47.77;101859.31;4960544;28;20101;-80
2023/02/18 00:53:29;;;;;;;6.90;4.90;;;;;;;11.84;48.35;101854.84;4955896;28;20110;-80
2023/02/18 00:55:59;;;;;;;7.22;5.25;;;;;;;11.82;47.98;101847.69;4946770;29;20450;-80
2023/02/18 00:58:27;;;;;;;7.30;5.28;;;;;;;11.81;47.91;101852.31;4958310;28;20061;-79
2023/02/18 01:00:56;;;;;;;8.65;5.38;;;;;;;11.80;48.10;101856.03;4973856;28;20051;-78
2023/02/18 01:03:24;;;;;;;8.25;5.70;;;;;;;11.80;48.47;101847.81;4974888;28;20057;-80
2023/02/18 01:05:54;;;;;;;7.22;5.60;;;;;;;11.81;48.51;101849.56;4965244;28;20050;-79
2023/02/18 01:08:27;;;;;;;6.90;4.90;;;;;;;11.80;48.67;101834.09;4951665;28;20557;-80
2023/02/18 01:10:58;;;;;;;7.57;5.22;;;;;;;11.80;48.34;101839.59;4944846;28;20085;-79
2023/02/18 01:13:27;;;;;;;7.15;4.85;;;;;;;11.80;48.04;101827.78;4954418;28;20391;-80
2023/02/18 01:15:57;;;;;;;8.68;5.68;;;;;;;11.79;48.44;101818.66;4964966;28;20124;-79
2023/02/18 01:18:25;;;;;;;7.97;5.43;;;;;;;11.79;48.41;101818.66;4953085;28;20658;-80
2023/02/18 01:20:54;;;;;;;8.45;6.05;;;;;;;11.80;48.39;101827.78;4951443;28;20156;-79
2023/02/18 01:23:23;;;;;;;7.85;5.80;;;;;;;11.79;48.14;101823.28;4957948;28;20042;-79
2023/02/18 01:25:51;;;;;;;8.02;5.40;;;;;;;11.78;48.20;101827.88;4974254;28;20479;-80
2023/02/18 01:28:20;;;;;;;6.68;5.00;;;;;;;11.78;48.59;101825.16;4970508;28;20667;-79
2023/02/18 01:30:48;;;;;;;7.18;4.72;;;;;;;11.78;48.06;101824.28;4958603;28;20051;-80
2023/02/18 01:33:18;;;;;;;6.78;4.95;;;;;;;11.78;48.32;101830.63;4950994;28;20568;-79
2023/02/18 01:35:47;;;;;;;6.97;4.93;;;;;;;11.79;48.52;101821.41;4954492;28;20043;-79
2023/02/18 01:38:16;;;;;;;7.30;5.10;;;;;;;11.80;48.15;101816.81;4953478;28;20510;-79
2023/02/18 01:40:47;;;;;;;8.93;5.15;;;;;;;11.79;48.17;101807.69;4966666;28;20055;-80
2023/02/18 01:43:16;;;;;;;7.00;4.47;;;;;;;11.78;48.07;101814.16;4971556;28;20521;-80
2023/02/18 01:45:57;;;;;;;6.47;4.50;;;;;;;11.80;48.26;101805.84;4952646;28;20311;-79
2023/02/18 01:48:31;;;;;;;7.43;4.50;;;;;;;11.79;48.46;101801.34;4971080;28;20042;-78
2023/02/18 01:51:04;;;;;;;5.80;4.10;;;;;;;11.79;48.45;101804.97;4950242;29;20071;-79
2023/02/18 01:53:37;;;;;;;6.65;4.43;;;;;;;11.80;48.61;101794.88;4952879;28;20049;-78
2023/02/18 01:56:11;;;;;;;7.35;4.50;;;;;;;11.79;48.67;101785.75;4963310;28;20043;-78
2023/02/18 01:58:39;;;;;;;5.90;4.45;;;;;;;11.77;48.41;101795.97;4953620;28;20047;-80
2023/02/18 02:01:11;;;;;;;5.25;3.72;;;;;;;11.79;48.43;101806.81;4946559;28;20039;-81
2023/02/18 02:03:39;;;;;;;7.05;4.30;;;;;;;11.77;48.30;101798.72;4976918;28;20051;-81
2023/02/18 02:06:14;;;;;;;7.88;4.47;;;;;;;11.78;48.41;101786.75;4962744;28;20777;-80
2023/02/18 02:08:45;;;;;;;6.95;4.47;;;;;;;11.77;48.77;101782.25;4980544;28;20047;-81
2023/02/18 02:11:24;;;;;;;6.03;4.03;;;;;;;11.78;48.46;101788.63;4957271;28;20049;-81
2023/02/18 02:14:16;;;;;;;6.22;3.90;;;;;;;11.76;48.61;101783.25;4956657;28;20047;-81
2023/02/18 02:16:50;;;;;;;6.50;3.97;;;;;;;11.74;48.63;101780.63;4948956;28;20071;-81
2023/02/18 02:19:55;;;;;;;7.03;4.18;;;;;;;11.72;48.89;101785.34;4975355;28;20123;-81
2023/02/18 02:22:57;;;;;;;5.50;3.83;;;;;;;11.73;48.85;101781.59;4972097;28;20502;-82
2023/02/18 02:25:46;;;;;;;6.80;3.72;;;;;;;11.72;49.07;101770.75;4933396;28;20073;-80
2023/02/18 02:28:51;;;;;;;5.45;3.50;;;;;;;11.67;49.54;101773.88;4958751;28;20098;-82
2023/02/18 02:31:46;;;;;;;6.35;3.70;;;;;;;11.67;49.28;101759.28;4979462;28;20039;-81
2023/02/18 02:34:39;;;;;;;5.95;3.70;;;;;;;11.67;49.53;101762.03;4970028;28;20062;-80
2023/02/18 02:37:16;;;;;;;6.38;3.63;;;;;;;11.63;49.20;101749.56;4974834;28;20057;-79
2023/02/18 02:39:57;;;;;;;5.13;3.20;;;;;;;11.65;49.48;101755.78;4969810;28;20043;-79
2023/02/18 02:42:41;;;;;;;5.22;3.45;;;;;;;11.63;49.68;101739.47;4963985;28;20060;-80
2023/02/18 02:45:23;;;;;;;5.90;3.70;;;;;;;11.61;49.26;101743.31;4944041;28;20043;-80
2023/02/18 02:47:59;;;;;;;5.80;3.70;;;;;;;11.61;49.77;101748.78;4955672;28;20074;-82
2023/02/18 02:50:37;;;;;;;4.97;3.28;;;;;;;11.59;50.32;101737.91;4914541;28;20110;-81
2023/02/18 02:53:16;;;;;;;6.30;3.50;;;;;;;11.58;49.74;101749.88;4964769;28;20047;-81
2023/02/18 02:55:45;;;;;;;5.53;3.67;;;;;;;11.56;49.27;101738.13;4914396;28;20144;-80
2023/02/18 02:58:16;;;;;;;5.40;3.75;;;;;;;11.58;49.72;101736.16;4950593;29;20077;-80
2023/02/18 03:00:57;;;;;;;5.70;3.67;;;;;;;11.58;49.97;101738.91;4952278;28;20069;-81
2023/02/18 03:03:43;;;;;;;5.63;3.85;;;;;;;11.57;49.96;101739.00;4961348;28;20042;-80
2023/02/18 03:06:48;;;;;;;6.07;3.92;;;;;;;11.51;50.15;101734.00;4953497;28;20067;-79
2023/02/18 03:09:21;;;;;;;6.50;4.15;;;;;;;11.51;49.87;101732.16;4945007;28;20519;-81
2023/02/18 03:12:00;;;;;;;5.97;3.47;;;;;;;11.54;49.91;101726.44;4948257;29;20044;-80
2023/02/18 03:14:41;;;;;;;6.25;3.90;;;;;;;11.53;49.89;101716.47;4954347;28;20070;-80
2023/02/18 03:17:16;;;;;;;6.18;3.92;;;;;;;11.52;49.92;101711.97;4970172;28;20134;-78
2023/02/18 03:19:49;;;;;;;6.45;3.95;;;;;;;11.52;49.83;101706.50;4969314;28;20043;-79
2023/02/18 03:22:23;;;;;;;5.97;3.55;;;;;;;11.52;49.93;101711.09;4954979;28;20578;-79
2023/02/18 03:24:57;;;;;;;5.65;3.60;;;;;;;11.52;50.11;101711.09;4965578;28;20075;-80
2023/02/18 03:27:28;;;;;;;5.00;3.20;;;;;;;11.51;49.61;101715.69;4971907;28;20059;-80
2023/02/18 03:30:02;;;;;;;6.97;3.80;;;;;;;11.49;50.00;101705.84;4956731;28;20058;-80
2023/02/18 03:32:34;;;;;;;4.95;3.10;;;;;;;11.49;49.74;101703.09;4960274;28;20054;-81
2023/02/18 03:35:08;;;;;;;5.45;3.35;;;;;;;11.50;49.86;101707.59;4957886;28;20322;-80
2023/02/18 03:37:40;;;;;;;5.10;3.17;;;;;;;11.52;50.27;101697.38;4952181;28;20067;-80
2023/02/18 03:40:10;;;;;;;5.15;3.20;;;;;;;11.50;49.87;101704.84;4953191;28;20053;-81
2023/02/18 03:42:38;;;;;;;4.65;2.85;;;;;;;11.50;49.67;101694.75;4952482;28;20081;-80
2023/02/18 03:45:07;;;;;;;4.40;2.95;;;;;;;11.51;49.74;101688.28;4974756;28;20476;-79
2023/02/18 03:47:35;;;;;;;4.53;3.00;;;;;;;11.50;50.29;101686.53;4962322;28;20054;-79
2023/02/18 03:50:04;;;;;;;4.95;2.97;;;;;;;11.49;49.80;101682.03;4978159;28;20154;-79
2023/02/18 03:52:31;;;;;;;4.45;2.75;;;;;;;11.51;49.92;101684.66;4981498;28;20530;-79
2023/02/18 03:55:01;;;;;;;3.95;2.60;;;;;;;11.52;50.12;101672.72;4976393;28;20047;-80
2023/02/18 03:57:30;;;;;;;3.80;2.45;;;;;;;11.49;49.92;101673.81;4969221;28;20074;-79
2023/02/18 03:59:58;;;;;;;3.90;2.42;;;;;;;11.49;49.99;101665.59;4964921;28;20055;-79
2023/02/18 04:02:26;;;;;;;3.90;2.35;;;;;;;11.50;50.15;101663.72;4965153;28;20066;-78
2023/02/18 04:04:53;;;;;;;3.33;1.92;;;;;;;11.49;50.28;101659.25;4967548;28;20047;-79
2023/02/18 04:07:21;;;;;;;3.95;2.08;;;;;;;11.49;50.50;101665.59;4968236;28;20046;-79
2023/02/18 04:09:49;;;;;;;3.30;2.03;;;;;;;11.48;50.64;101655.63;4968836;28;20073;-78
2023/02/18 04:12:19;;;;;;;3.20;1.88;;;;;;;11.49;50.42;101654.63;4973696;28;20037;-79
2023/02/18 04:14:46;;;;;;;2.92;1.85;;;;;;;11.47;50.62;101650.28;4963627;28;20046;-80
2023/02/18 04:17:14;;;;;;;4.05;2.08;;;;;;;11.45;50.45;101644.91;4974574;28;20055;-79
2023/02/18 04:19:42;;;;;;;3.63;2.08;;;;;;;11.46;50.42;101643.06;4969652;28;20051;-80
2023/02/18 04:22:10;;;;;;;4.13;2.30;;;;;;;11.46;50.36;101646.66;4991980;28;20043;-80
2023/02/18 04:24:38;;;;;;;2.90;1.63;;;;;;;11.45;50.42;101644.03;4986046;28;20083;-79
2023/02/18 04:27:06;;;;;;;3.33;1.70;;;;;;;11.45;50.69;101644.03;4961511;28;20051;-79
2023/02/18 04:29:35;;;;;;;3.45;1.65;;;;;;;11.45;50.86;101647.66;4966180;28;20050;-80
2023/02/18 04:32:03;;;;;;;4.18;2.15;;;;;;;11.44;50.31;101642.28;4955120;28;20125;-80
2023/02/18 04:34:31;;;;;;;3.33;1.73;;;;;;;11.42;50.75;101642.41;4971581;28;20030;-81
2023/02/18 04:36:59;;;;;;;3.33;1.70;;;;;;;11.40;50.78;101638.91;4972578;28;20051;-78
2023/02/18 04:39:27;;;;;;;2.97;1.88;;;;;;;11.42;50.93;101641.53;4970788;28;20061;-78
2023/02/18 04:41:54;;;;;;;2.95;1.70;;;;;;;11.38;50.82;101631.81;4973387;28;20055;-80
2023/02/18 04:44:22;;;;;;;3.30;1.60;;;;;;;11.40;50.58;101638.91;4971388;28;20504;-80
2023/02/18 04:46:51;;;;;;;3.05;1.48;;;;;;;11.41;51.19;101628.81;4974721;28;20046;-77
2023/02/18 04:49:19;;;;;;;2.47;1.38;;;;;;;11.38;50.62;101623.59;4960550;28;20077;-76
2023/02/18 04:51:47;;;;;;;2.63;1.17;;;;;;;11.38;50.75;101621.75;4962092;28;20070;-78
2023/02/18 04:54:15;;;;;;;2.17;1.20;;;;;;;11.39;50.93;101622.63;4949725;28;20157;-78
2023/02/18 04:56:42;;;;;;;3.10;1.40;;;;;;;11.37;50.81;101622.72;4952212;29;20791;-78
2023/02/18 04:59:11;;;;;;;2.72;1.23;;;;;;;11.36;50.55;101621.84;4953357;28;20138;-77
2023/02/18 05:01:39;;;;;;;2.60;1.13;;;;;;;11.35;51.05;101614.63;4953948;28;20110;-77
2023/02/18 05:04:08;;;;;;;2.63;1.30;;;;;;;11.37;50.80;101620.00;4961213;28;20081;-77
2023/02/18 05:06:38;;;;;;;2.10;1.20;;;;;;;11.34;50.66;101615.59;4965795;28;20061;-77
2023/02/18 05:09:06;;;;;;;2.10;1.02;;;;;;;11.34;50.72;101618.34;4941304;28;20115;-76
2023/02/18 05:11:33;;;;;;;2.65;1.15;;;;;;;11.33;50.53;101619.34;4971383;28;20051;-76
2023/02/18 05:14:01;;;;;;;3.22;1.13;;;;;;;11.31;50.67;101613.09;4955157;28;20043;-78
2023/02/18 05:16:30;;;;;;;3.42;1.42;;;;;;;11.31;51.14;101618.59;4968151;28;20544;-77
2023/02/18 05:18:58;;;;;;;2.80;1.40;;;;;;;11.29;51.21;101601.41;4963058;28;20078;-77
2023/02/18 05:21:27;;;;;;;3.70;1.77;;;;;;;11.30;50.89;101605.03;4946262;29;20121;-77
2023/02/18 05:23:54;;;;;;;4.25;2.17;;;;;;;11.28;51.17;101602.41;4936145;28;20105;-77
2023/02/18 05:26:22;;;;;;;3.88;1.70;;;;;;;11.28;50.77;101596.03;4971267;28;20050;-77
2023/02/18 05:28:50;;;;;;;5.30;2.35;;;;;;;11.26;50.75;101593.41;4969005;28;20046;-77
2023/02/18 05:31:18;;;;;;;3.80;1.83;;;;;;;11.24;51.18;101581.69;4953282;28;20051;-77
2023/02/18 05:33:46;;;;;;;3.55;1.85;;;;;;;11.23;51.13;101571.72;4962789;28;20475;-77
2023/02/18 05:36:14;;;;;;;2.97;1.67;;;;;;;11.22;50.72;101563.66;4947306;28;20465;-78
2023/02/18 05:38:43;;;;;;;3.42;1.55;;;;;;;11.21;50.74;101565.53;4939511;28;20097;-77
2023/02/18 05:41:10;;;;;;;3.10;1.27;;;;;;;11.19;50.84;101563.88;4966268;28;20057;-78
2023/02/18 05:46:20;;;;;;;2.58;1.50;;;;;;;11.15;50.88;101565.97;4957245;28;20051;-77
2023/02/18 05:48:48;;;;;;;2.88;1.50;;;;;;;11.15;51.13;101559.63;4949282;28;20069;-78
2023/02/18 05:51:16;;;;;;;2.65;1.55;;;;;;;11.13;51.17;101548.81;4969533;28;20138;-78
2023/02/18 05:53:45;;;;;;;3.00;1.60;;;;;;;11.14;51.09;101558.75;4960859;28;20043;-77
2023/02/18 05:56:13;;;;;;;2.65;1.50;;;;;;;11.11;50.87;101549.94;4964742;28;20129;-77
2023/02/18 05:58:41;;;;;;;3.53;1.85;;;;;;;11.09;51.50;101544.56;4947968;29;20455;-78
2023/02/18 06:01:08;;;;;;;3.13;1.70;;;;;;;11.08;51.50;101550.16;4959153;28;20114;-78
2023/02/18 06:03:36;;;;;;;2.60;1.58;;;;;;;11.07;51.49;101540.19;4954926;28;20050;-78
2023/02/18 06:06:05;;;;;;;3.80;1.88;;;;;;;11.06;51.09;101542.06;4944350;28;20055;-78
2023/02/18 06:08:33;;;;;;;3.28;1.60;;;;;;;11.03;51.64;101542.31;4969135;28;20043;-78
2023/02/18 06:11:02;;;;;;;3.03;1.60;;;;;;;11.04;51.57;101546.81;4952861;28;20065;-78
2023/02/18 06:13:30;;;;;;;2.42;1.50;;;;;;;11.02;51.59;101547.91;4941542;29;20142;-77
2023/02/18 06:15:58;;;;;;;2.58;1.65;;;;;;;11.01;51.75;101538.81;4947322;28;20089;-78
2023/02/18 06:18:26;;;;;;;3.33;1.67;;;;;;;11.01;51.65;101547.03;4944585;28;20113;-78
2023/02/18 06:20:54;;;;;;;2.78;1.60;;;;;;;10.99;51.35;101544.41;4950616;28;20047;-76
2023/02/18 06:23:22;;;;;;;3.42;1.40;;;;;;;10.99;51.48;101547.16;4954323;28;20576;-78
2023/02/18 06:25:50;;;;;;;3.20;1.60;;;;;;;11.00;51.22;101548.03;4926588;28;20061;-78
2023/02/18 06:28:19;;;;;;;2.80;1.40;;;;;;;11.00;51.79;101542.53;4970502;28;20461;-77
2023/02/18 06:30:47;;;;;;;2.90;1.50;;;;;;;10.98;51.37;101544.53;4943842;29;20036;-78
2023/02/18 06:33:15;;;;;;;2.47;1.50;;;;;;;10.97;51.51;101542.81;4943792;28;20050;-78
2023/02/18 06:35:43;;;;;;;2.85;1.65;;;;;;;10.97;51.63;101543.69;4942244;28;20057;-78
2023/02/18 06:38:10;;;;;;;2.58;1.60;;;;;;;10.97;51.32;101542.81;4955379;28;20043;-78
2023/02/18 06:40:38;;;;;;;2.22;1.33;;;;;;;10.97;51.62;101551.03;4963658;28;20061;-78
2023/02/18 06:43:06;;;;;;;2.67;1.45;;;;;;;10.96;51.67;101536.44;4952024;28;20051;-77
2023/02/18 06:45:35;;;;;;;2.50;1.48;;;;;;;10.98;51.28;101544.53;4963756;28;20050;-78
2023/02/18 06:48:03;;;;;;;2.55;1.58;;;;;;;10.96;51.05;101544.66;4951415;28;20043;-77
2023/02/18 06:50:30;;;;;;;2.60;1.40;;;;;;;10.96;51.23;101535.56;4954962;28;20058;-77
2023/02/18 06:52:59;;;;;;;2.40;1.35;;;;;;;10.96;51.14;101530.97;4956091;28;20418;-78
2023/02/18 06:55:26;;;;;;;1.83;1.35;;;;;;;10.96;51.41;101538.31;4956796;28;20046;-77
2023/02/18 06:57:54;;;;;;;2.10;1.30;;;;;;;10.97;51.05;101542.81;4950833;28;20046;-78
2023/02/18 07:00:22;;;;;;;2.47;1.33;;;;;;;10.95;51.35;101539.31;4948037;28;20035;-75
2023/02/18 07:02:51;;;;;;;2.40;1.17;;;;;;;10.97;51.02;101548.28;4966897;28;20046;-76
2023/02/18 07:05:19;;;;;;;1.95;1.27;;;;;;;10.96;51.02;101546.53;4969834;28;20133;-76
2023/02/18 07:07:47;;;;;;;2.33;1.27;;;;;;;10.96;51.03;101552.00;4955817;28;21197;-76
2023/02/18 07:10:15;;;;;;;2.58;1.30;;;;;;;10.96;50.77;101555.63;4947364;28;20043;-76
2023/02/18 07:12:43;;;;;;;2.17;1.30;;;;;;;10.96;50.90;101555.63;4962749;28;20035;-77
2023/02/18 07:15:11;;;;;;;2.17;1.15;;;;;;;10.98;50.74;101552.75;4965663;28;20399;-76
2023/02/18 07:17:39;;;;;;;1.63;1.10;;;;;;;10.96;50.96;101552.00;4952323;28;20047;-75
2023/02/18 07:20:09;;;;;;;2.05;1.15;;;;;;;10.99;50.80;101549.00;4967834;28;20062;-77
2023/02/18 07:22:37;;;;;;;2.63;1.30;;;;;;;10.97;50.61;101553.75;4968239;28;20046;-77
2023/02/18 07:25:05;;;;;;;2.22;1.27;;;;;;;10.97;50.71;101553.75;4949042;28;20047;-76
2023/02/18 07:27:33;;;;;;;1.98;1.30;;;;;;;10.96;50.54;101541.94;4964164;28;20117;-76
2023/02/18 07:30:01;;;;;;;2.38;1.30;;;;;;;10.96;50.67;101550.16;4941490;28;20065;-77
2023/02/18 07:32:29;;;;;;;2.22;1.15;;;;;;;10.96;50.65;101541.94;4965965;28;20082;-77
2023/02/18 07:34:56;;;;;;;2.33;1.40;;;;;;;10.96;50.72;101547.41;4962777;28;20058;-77
2023/02/18 07:37:26;;;;;;;2.30;1.20;;;;;;;10.98;50.23;101552.75;4949595;28;20570;-77
2023/02/18 07:39:53;;;;;;;1.85;1.02;;;;;;;10.96;50.51;101552.00;4959512;28;20047;-77
2023/02/18 07:42:21;;;;;;;1.75;1.20;;;;;;;10.96;50.70;101555.63;4967204;28;20034;-77
2023/02/18 07:44:49;;;;;;;1.90;1.13;;;;;;;10.96;50.63;101560.22;4949736;28;20417;-77
2023/02/18 07:47:18;;;;;;;2.13;1.10;;;;;;;10.96;50.82;101568.44;4965333;28;20043;-77
2023/02/18 07:49:46;;;;;;;2.13;1.25;;;;;;;10.97;51.00;101570.19;4952607;28;20138;-77
2023/02/18 07:52:15;;;;;;;1.85;1.17;;;;;;;10.97;50.30;101562.84;4961095;28;20176;-77
2023/02/18 07:54:44;;;;;;;3.00;1.00;;;;;;;10.98;50.22;101581.00;4957174;28;20095;-77
2023/02/18 07:57:12;;;;;;;1.55;1.00;;;;;;;10.97;50.10;101575.66;4957199;28;20043;-76
2023/02/18 07:59:40;;;;;;;2.85;1.20;;;;;;;10.97;50.12;101586.63;4943579;28;20053;-77
2023/02/18 08:02:15;;;;;;;1.67;0.95;;;;;;;11.00;50.50;101580.88;4954509;28;20117;-77
2023/02/18 08:04:43;;;;;;;1.90;1.00;;;;;;;10.98;50.08;101593.81;4961412;28;20135;-77
2023/02/18 08:07:13;;;;;;;2.25;1.00;;;;;;;10.98;50.15;101589.22;4965291;28;20057;-76
2023/02/18 08:09:41;;;;;;;1.50;0.88;;;;;;;10.96;49.80;101584.88;4946969;28;20042;-77
2023/02/18 08:12:10;;;;;;;2.47;1.05;;;;;;;10.97;49.98;101592.97;4950665;28;20105;-77
2023/02/18 08:14:39;;;;;;;1.35;0.90;;;;;;;10.96;49.76;101596.72;4964281;28;20070;-77
2023/02/18 08:17:06;;;;;;;1.95;1.13;;;;;;;10.94;49.84;101590.47;4942736;28;20043;-77
2023/02/18 08:19:34;;;;;;;2.38;1.10;;;;;;;10.95;49.97;101605.03;4943015;28;20517;-77
2023/02/18 08:22:02;;;;;;;2.17;0.90;;;;;;;10.94;49.84;101606.91;4951108;28;20050;-77
2023/02/18 08:24:30;;;;;;;2.58;1.10;;;;;;;10.93;49.41;101607.88;4945416;28;20147;-77
2023/02/18 08:26:58;;;;;;;2.65;1.00;;;;;;;10.91;49.86;101612.59;4959286;28;20035;-77
2023/02/18 08:29:30;;;;;;;1.55;0.82;;;;;;;10.91;49.75;101618.06;4953519;28;20074;-77
2023/02/18 08:31:58;;;;;;;2.20;0.88;;;;;;;10.87;49.46;101608.38;4948540;29;20058;-77
2023/02/18 08:34:41;;;;;;;2.22;0.90;;;;;;;10.87;49.47;101623.94;5077380;27;20399;-73
2023/02/18 08:37:09;;;;;;;2.80;1.33;;;;;;;10.83;49.42;101622.41;5061908;28;20033;-72
2023/02/18 08:39:38;;;;;;;1.60;0.90;;;;;;;10.83;50.01;101616.91;5050254;28;20056;-72
2023/02/18 08:42:07;;;;;;;2.75;1.40;;;;;;;10.79;49.50;101615.44;5036737;28;20077;-73
2023/02/18 08:44:34;;;;;;;4.72;1.35;;;;;;;10.77;49.65;101606.44;5038754;28;20055;-69
2023/02/18 08:47:02;;;;;;;2.92;1.23;;;;;;;10.76;49.50;101610.16;5057047;28;20076;-69
2023/02/18 08:49:52;;;;;;;2.55;1.15;;;;;;;10.74;49.65;101617.63;5057954;28;20867;-71
2023/02/18 08:52:20;;;;;;;3.28;1.27;;;;;;;10.72;49.74;101622.38;5062949;28;20071;-70
2023/02/18 08:54:48;;;;;;;3.53;1.45;;;;;;;10.71;49.77;101612.41;5056741;28;20501;-70
2023/02/18 08:57:16;;;;;;;2.10;1.30;;;;;;;10.69;49.57;101607.03;5053891;28;20140;-69
2023/02/18 08:59:44;;;;;;;3.53;1.30;;;;;;;10.70;49.90;101613.38;5055803;28;20040;-69
2023/02/18 09:02:14;;;;;;;3.33;1.15;;;;;;;10.69;49.59;101601.56;5057524;28;20362;-69
2023/02/18 09:04:41;;;;;;;2.63;1.20;;;;;;;10.67;49.57;101600.78;5055580;28;20033;-69
2023/02/18 09:07:11;;;;;;;4.40;1.33;;;;;;;10.68;49.49;101602.53;5053560;28;20477;-71
2023/02/18 09:09:38;;;;;;;3.80;1.45;;;;;;;10.68;49.66;101599.81;5052345;28;20048;-71
2023/02/18 09:12:07;;;;;;;3.80;1.30;;;;;;;10.70;49.54;101589.63;5063293;28;20037;-70
2023/02/18 09:14:35;;;;;;;4.90;1.73;;;;;;;10.70;49.75;101591.47;5061686;28;20053;-70
2023/02/18 09:17:03;;;;;;;3.47;1.33;;;;;;;10.71;49.60;101599.59;5058389;28;20037;-68
2023/02/18 09:19:30;;;;;;;3.47;1.40;;;;;;;10.72;49.38;101595.00;5049880;28;20656;-75
2023/02/18 09:21:58;;;;;;;3.05;1.40;;;;;;;10.72;49.08;101584.03;5059669;28;20106;-76
2023/02/18 09:24:29;;;;;;;5.05;1.63;;;;;;;10.74;49.14;101587.50;5054437;28;20480;-72
2023/02/18 09:26:56;;;;;;;6.90;1.92;;;;;;;10.73;49.33;101586.63;5058096;28;20051;-74
2023/02/18 09:29:24;;;;;;;5.88;1.88;;;;;;;10.73;49.16;101594.00;5057124;28;20056;-74
2023/02/18 09:31:52;;;;;;;5.32;1.73;;;;;;;10.73;48.81;101581.16;5057472;28;20056;-75
2023/02/18 09:34:20;;;;;;;4.35;1.75;;;;;;;10.73;49.12;101589.38;5056581;28;20425;-72
2023/02/18 09:36:48;;;;;;;5.38;1.90;;;;;;;10.74;49.25;101584.75;5061720;28;20060;-74
2023/02/18 09:39:16;;;;;;;3.03;1.50;;;;;;;10.74;49.09;101582.03;5052984;28;20045;-73
2023/02/18 09:41:48;;;;;;;3.72;1.80;;;;;;;10.77;48.92;101573.59;5045336;28;20045;-71
2023/02/18 09:44:21;;;;;;;5.57;2.15;;;;;;;10.77;48.56;101570.84;5050107;28;20132;-76
2023/02/18 09:46:52;;;;;;;3.00;1.48;;;;;;;10.72;48.59;101565.75;5041129;28;20131;-75
2023/02/18 09:49:25;;;;;;;5.57;1.55;;;;;;;10.75;48.83;101581.03;5040168;28;20052;-72
2023/02/18 09:51:53;;;;;;;3.42;1.90;;;;;;;10.71;48.93;101564.00;5047752;28;20545;-74
2023/02/18 09:54:22;;;;;;;4.93;1.88;;;;;;;10.73;48.89;101577.56;5038290;28;20040;-73
2023/02/18 09:56:53;;;;;;;5.47;1.80;;;;;;;10.74;48.93;101574.69;5039418;28;20134;-75
2023/02/18 09:59:24;;;;;;;4.65;1.63;;;;;;;10.73;48.68;101567.47;5035789;28;20061;-75
2023/02/18 10:01:54;;;;;;;3.92;1.70;;;;;;;10.72;48.80;101564.88;5041610;28;20061;-72
2023/02/18 10:04:28;;;;;;;5.45;1.80;;;;;;;10.73;48.34;101562.00;5043731;28;20068;-74
2023/02/18 10:06:57;;;;;;;3.58;1.50;;;;;;;10.73;48.56;101566.63;5040768;28;20056;-73
2023/02/18 10:09:29;;;;;;;4.90;2.03;;;;;;;10.74;48.29;101547.31;5040964;28;20037;-72
2023/02/18 10:12:08;;;;;;;5.10;1.80;;;;;;;10.73;48.57;101559.25;5041722;28;20136;-73
2023/02/18 10:14:36;;;;;;;3.85;1.40;;;;;;;10.72;48.48;101540.22;5040895;28;20262;-73
2023/02/18 10:17:05;;;;;;;5.03;1.65;;;;;;;10.72;48.29;101553.91;5042284;28;20064;-73
2023/02/18 10:19:36;;;;;;;4.25;1.60;;;;;;;10.74;48.45;101536.34;5031415;28;20126;-74
2023/02/18 10:22:06;;;;;;;5.03;1.80;;;;;;;10.74;48.79;101549.19;5043547;28;20102;-73
2023/02/18 10:24:38;;;;;;;5.30;2.15;;;;;;;10.74;48.58;101538.22;5042601;28;20506;-73
2023/02/18 10:27:09;;;;;;;4.75;1.70;;;;;;;10.73;48.27;101547.47;5044394;28;20045;-72
2023/02/18 10:29:36;;;;;;;5.85;1.77;;;;;;;10.72;48.59;101545.72;5041448;28;20041;-71
2023/02/18 10:32:14;;;;;;;4.53;1.48;;;;;;;10.73;48.23;101562.00;5044784;28;20033;-73
2023/02/18 10:34:45;;;;;;;3.38;1.40;;;;;;;10.72;48.24;101567.59;5029165;28;20115;-72
2023/02/18 10:37:31;;;;;;;7.07;1.85;;;;;;;10.73;48.66;101570.19;5035183;28;20148;-72
2023/02/18 10:40:08;;;;;;;4.38;1.60;;;;;;;10.73;48.54;101583.88;5040646;28;20848;-73
2023/02/18 10:42:47;;;;;;;2.97;1.60;;;;;;;10.75;48.77;101570.09;5043681;28;20392;-72
2023/02/18 10:45:24;;;;;;;7.43;1.77;;;;;;;10.74;48.73;101576.56;5055735;28;20080;-73
2023/02/18 10:48:05;;;;;;;8.05;1.75;;;;;;;10.72;49.03;101586.78;5042177;28;20129;-73
2023/02/18 10:50:37;;;;;;;4.82;1.55;;;;;;;10.71;48.88;101591.38;5036691;28;20334;-73
2023/02/18 10:53:13;;;;;;;4.20;1.60;;;;;;;10.70;49.21;101602.44;5043804;28;20124;-73
2023/02/18 10:55:43;;;;;;;5.15;1.98;;;;;;;10.69;48.90;101607.03;5043168;28;20116;-73
2023/02/18 10:58:32;;;;;;;4.28;1.60;;;;;;;10.69;49.31;101600.69;5044700;28;20148;-74
2023/02/18 11:01:04;;;;;;;4.10;1.35;;;;;;;10.68;49.26;101602.53;5039028;28;20057;-74
2023/02/18 11:03:44;;;;;;;5.18;1.65;;;;;;;10.70;49.17;101591.47;5041355;28;20048;-74
2023/02/18 11:06:20;;;;;;;7.10;2.40;;;;;;;10.69;49.51;101587.00;5039301;28;20140;-72
2023/02/18 11:08:49;;;;;;;4.63;1.98;;;;;;;10.67;49.30;101597.19;5039253;28;20143;-72
2023/02/18 11:11:23;;;;;;;5.30;1.90;;;;;;;10.68;49.86;101590.72;5038230;28;20033;-71
2023/02/18 11:13:55;;;;;;;3.58;2.10;;;;;;;10.67;49.54;101603.53;5042729;28;20048;-77
2023/02/18 11:16:23;;;;;;;;;;;;;;;10.40;50.25;101605.63;5037772;28;20041;-77
2023/02/18 11:18:51;;;;;;;2.88;1.42;;;;;;;10.61;49.90;101606.75;5034638;28;19974;-75
2023/02/18 11:21:29;;;;;;;4.32;1.88;;;;;;;10.67;50.36;101605.41;5040705;28;20109;-75
2023/02/18 11:24:05;;;;;;;3.65;1.88;;;;;;;10.66;50.00;101598.16;5050236;28;20053;-75
2023/02/18 11:26:36;;;;;;;4.72;2.03;;;;;;;10.67;49.82;101602.66;5045529;28;20131;-76
2023/02/18 11:29:07;;;;;;;3.90;2.15;;;;;;;10.67;50.28;101616.34;5039661;28;20108;-75
2023/02/18 11:31:43;;;;;;;4.85;2.40;;;;;;;10.66;50.54;101607.25;5040493;28;20599;-75
2023/02/18 11:34:17;;;;;;;4.95;2.33;;;;;;;10.65;50.06;101586.34;5037084;28;20073;-75
2023/02/18 11:36:45;;;;;;;;;;;;;;;10.37;50.60;101595.75;5045213;28;20049;-75
2023/02/18 11:39:20;;;;;;;3.38;1.60;;;;;;;10.60;50.61;101596.78;5030477;28;19932;-73
2023/02/18 11:41:54;;;;;;;2.97;1.77;;;;;;;10.58;49.97;101594.16;5036791;28;20138;-73
2023/02/18 11:44:28;;;;;;;3.80;1.80;;;;;;;10.58;50.74;101594.16;5044422;28;20064;-75
2023/02/18 11:46:59;;;;;;;3.00;1.52;;;;;;;10.57;50.33;101594.25;5032789;28;20099;-75